Monument Lake Park, Colorado
Current Conditions -  °F | °C
As of 1:12 AM on Monday 24 Nov 2014 (Local Time) from KVTP Reporting Station
Clear Clear  
Wind Chill: -8°   Ceiling: Unl
Heat Index:   Visibility: 10mi
Dew Point:   Wind: 10mph
Humidity: 79%   Direction: 200°SSW
Pressure: 29.88"   Gusts: NA
Location:  37.1566°N, 104.956°W
Report Text: KVTP 240812Z AUTO 20009KT 10SM CLR M14/M17 A2988 RMK AO2
Loading
Personal Weather Stations






























Interactive Weather Map New forecast layout! Learn more

10-Day Weather Forecast

Advertisements
Track Severe Weather on mobile